Accueil
METAR-TAF:

METAR-TAF

Aéroports :

Elmendorf Air Force Base

Anchorage Elmendorf, Alaska, États-Unis

latitude: 61-15-11N, longitude: 149-47-38W, altitude: 65 m

Observation

Le bulletin a été fait il y a 56 minutes, à 23:56 UTC
Vent 5 kt de nord-est
Température 0°C
Humidité 74%
Pression 1006 hPa
Visibilité: 16.1 km
Quelques nuages à une hauteur de 16000 ft
Nuages fragmentés à une hauteur de 20000 ft

METAR: PAED 112356Z 04005KT 10SM FEW160 BKN200 00/M04 A2972 RMK AO2A SLP062 T00031042 10003 21050 57023 $

Heure: 15:52 (00:52 UTC)

Prévision

Le bulletin a été fait il y a 5 heures et 52 minutes, à 19:00 UTC
Prévision valable du 11 à 19 UTC au 13 à 01 UTC
Vent 6 kt de nord/nord-est
Visibilité 10 km ou plus
Nuages épars à une hauteur de 10000 ft
Nuages fragmentés à une hauteur de 20000 ft

TAF: PAED 111900Z 1119/1301 02006KT 9999 SCT100 BKN200 QNH2957INS TXM03/1123Z TNM08/1215Z

Observations et prévisions météorologiques de plus de 4000 aéroports (messages METAR et TAF).

Les stations disponibles sont représentées par des disques jaunes et rouges sur la carte.

Passer la souris dessus pour voir le nom de la station.

Cliquer dessus pour voir les observations et prévisions météorologiques.

Pour changer de carte: cliquez sur les boutons verts avec une croix noire pour zoomer, sur le bouton vert avec un tiret pour effectuer un zoom arrière, ou sur les flèches vertes pour les cartes adjacentes.


METAR-TAF: